Flight Track Log - Related Links

Times and Time Zones

All times are in EDT time to prevent confusion due to time zone crossing. See the UPS987 flight status page for this flight to view local times or setup timezone preferences in your user account.

Time Position Orientation Groundspeed Altitude Reporting Facility
EDT Latitude Longitude Course Direction KTS MPH feet Rate Location/Type
Tue 11:15:29 PM 47.5111 -122.2850 152° Southeast 174 200 1,300  Level Seattle Center
Tue 11:16:17 PM 47.4747 -122.2558 152° Southeast 205 236 2,500 1,748 Climbing Seattle Center
Tue 11:17:12 PM 47.4322 -122.1939 135° Southeast 256 295 4,300 2,031 Climbing Seattle Center
Tue 11:17:22 PM 47.4308 -122.1797 98° East 250 288 4,700 1,861 Climbing Seattle Center
Tue 11:23:13 PM 47.4256 -121.3690 98° East 414 476 15,500 1,858 Climbing FlightAware ADS-B
Tue 11:23:43 PM 47.4241 -121.2830 91° East 419 482 16,500 2,000 Climbing FlightAware ADS-B
Tue 11:24:13 PM 47.4226 -121.1950 91° East 426 490 17,500 2,164 Climbing FlightAware ADS-B
Tue 11:24:44 PM 47.4210 -121.1040 91° East 432 497 18,700 2,164 Climbing FlightAware ADS-B
Tue 11:25:14 PM 47.4193 -121.0140 92° East 438 504 19,700 2,066 Climbing FlightAware ADS-B
Tue 11:25:45 PM 47.4175 -120.9220 92° East 443 510 20,800 2,066 Climbing FlightAware ADS-B
Tue 11:26:15 PM 47.4156 -120.8300 92° East 448 516 21,800 1,900 Climbing FlightAware ADS-B
Tue 11:26:45 PM 47.4136 -120.7370 92° East 452 520 22,700 1,800 Climbing FlightAware ADS-B
Tue 11:27:15 PM 47.4116 -120.6430 92° East 457 526 23,600 1,672 Climbing FlightAware ADS-B
Tue 11:27:46 PM 47.4095 -120.5450 92° East 461 531 24,400 1,574 Climbing FlightAware ADS-B
Tue 11:28:16 PM 47.4072 -120.4490 92° East 466 536 25,200 1,500 Climbing FlightAware ADS-B
Tue 11:28:46 PM 47.4049 -120.3530 92° East 471 542 25,900 1,500 Climbing FlightAware ADS-B
Tue 11:29:16 PM 47.4026 -120.2560 92° East 473 544 26,700 1,400 Climbing FlightAware ADS-B
Tue 11:29:46 PM 47.4001 -120.1580 92° East 476 548 27,300 1,300 Climbing FlightAware ADS-B
Tue 11:30:16 PM 47.3976 -120.0600 92° East 477 549 28,000 1,377 Climbing FlightAware ADS-B
Tue 11:30:47 PM 47.3950 -119.9620 92° East 475 547 28,700 1,574 Climbing FlightAware ADS-B
Tue 11:31:17 PM 47.3923 -119.8640 92° East 470 541 29,600 1,574 Climbing FlightAware ADS-B
Tue 11:31:48 PM 47.3894 -119.7650 92° East 469 540 30,300 1,315 Climbing FlightAware ADS-B
Tue 11:32:30 PM 47.3850 -119.6310 93° East 468 539 31,200 1,277 Climbing FlightAware ADS-B
Tue 11:33:22 PM 47.3806 -119.4630 92° East 467 537 32,300 1,200 Climbing FlightAware ADS-B
Tue 11:33:45 PM 47.3808 -119.3900 90° East 466 536 32,700 1,143 Climbing FlightAware ADS-B
Tue 11:34:25 PM 47.3850 -119.2650 87° East 463 533 33,500 1,084 Climbing FlightAware ADS-B
Tue 11:35:08 PM 47.3900 -119.1270 87° East 461 531 34,200 1,026 Climbing FlightAware ADS-B
Tue 11:35:41 PM 47.3940 -119.0220 87° East 460 529 34,800 545 Climbing FlightAware ADS-B
Tue 11:36:36 PM 47.4000 -118.8500 87° East 460 529 35,000 120 Climbing FlightAware ADS-B
Tue 11:37:21 PM 47.4040 -118.7080 88° East 462 532 35,000  Level FlightAware ADS-B
Tue 11:38:07 PM 47.4080 -118.5630 88° East 465 535 35,000  Level FlightAware ADS-B
Tue 11:38:44 PM 47.4110 -118.4440 88° East 467 537 35,000  Level FlightAware ADS-B
Tue 11:39:36 PM 47.4160 -118.2780 87° East 468 539 35,000  Level FlightAware ADS-B
Tue 11:40:05 PM 47.4180 -118.1870 88° East 469 540 35,000  Level FlightAware ADS-B
Tue 11:40:12 PM 47.4190 -118.1600 87° East 469 540 35,000  Level FlightAware ADS-B
Tue 11:41:14 PM 47.4230 -117.9910 88° East 469 540 35,000  Level FlightAware ADS-B
Tue 11:42:03 PM 47.4260 -117.8580 88° East 469 540 35,000  Level FlightAware ADS-B
Tue 11:42:39 PM 47.4280 -117.7590 88° East 469 540 35,000  Level FlightAware ADS-B
Tue 11:43:03 PM 47.4300 -117.6940 87° East 469 540 35,000  Level FlightAware ADS-B
Tue 11:44:15 PM 47.4340 -117.4980 88° East 469 540 35,000  Level FlightAware ADS-B
Tue 11:44:39 PM 47.4360 -117.4320 87° East 469 540 35,000  Level FlightAware ADS-B
Tue 11:45:39 PM 47.4400 -117.2690 88° East 469 540 35,000  Level FlightAware ADS-B
Tue 11:46:27 PM 47.4430 -117.1380 88° East 469 540 35,000  Level FlightAware ADS-B
Tue 11:47:27 PM 47.4460 -116.9750 88° East 469 540 35,000  Level FlightAware ADS-B
Tue 11:48:15 PM 47.4500 -116.8440 87° East 469 540 35,000  Level FlightAware ADS-B
Tue 11:48:39 PM 47.4510 -116.7780 89° East 469 540 35,000  Level FlightAware ADS-B
Tue 11:49:27 PM 47.4540 -116.6480 88° East 469 540 35,000  Level FlightAware ADS-B
Tue 11:50:03 PM 47.4560 -116.5490 88° East 469 540 35,000 -78 Level FlightAware ADS-B
Tue 11:50:44 PM 47.4539 -116.1325 88° East 478 550 34,900 -59 Descending Seattle Center
Tue 11:51:45 PM 47.4550 -115.9369 89° East 479 551 34,900  Level Seattle Center
Tue 11:52:46 PM 47.4564 -115.7258 89° East 479 551 34,900  Level Seattle Center
Tue 11:53:47 PM 47.4353 -115.5339 99° East 477 549 34,900  Level Seattle Center
Tue 11:54:47 PM 47.3967 -115.3433 107° East 486 559 34,900 15 Level Seattle Center
Wed 12:00:18 AM 47.1770 -114.2910 107° East 490 564 35,000 16 Climbing FlightAware ADS-B
Wed 12:00:52 AM 47.1530 -114.1760 107° East 490 564 35,000  Level FlightAware ADS-B
Wed 12:01:16 AM 47.1350 -114.0940 108° East 490 564 35,000  Level FlightAware ADS-B
Wed 12:01:50 AM 47.1110 -113.9800 107° East 490 564 35,000  Level FlightAware ADS-B
Wed 12:02:52 AM 47.0730 -113.8010 107° East 490 564 35,000  Level FlightAware ADS-B
Wed 12:03:24 AM 47.0500 -113.6980 108° East 490 564 35,000  Level FlightAware ADS-B
Wed 12:04:08 AM 47.0180 -113.5490 107° East 492 566 35,000  Level FlightAware ADS-B
Wed 12:05:09 AM 46.9740 -113.3490 108° East 493 567 35,000  Level FlightAware ADS-B
Wed 12:05:41 AM 46.9500 -113.2430 108° East 493 567 35,000  Level FlightAware ADS-B
Wed 12:06:38 AM 46.9100 -113.0630 108° East 491 565 35,000  Level FlightAware ADS-B
Wed 12:07:11 AM 46.8870 -112.9600 108° East 491 565 35,000  Level FlightAware ADS-B
Wed 12:07:43 AM 46.8640 -112.8590 108° East 490 564 35,000  Level FlightAware ADS-B
Wed 12:07:53 AM 46.8570 -112.8300 109° East 491 565 35,000  Level FlightAware ADS-B
Wed 12:09:10 AM 46.8110 -112.6230 108° East 491 565 35,000  Level FlightAware ADS-B
Wed 12:09:58 AM 46.7660 -112.4320 109° East 496 571 35,000  Level FlightAware ADS-B
Wed 12:10:58 AM 46.7220 -112.2390 108° East 497 572 35,000  Level FlightAware ADS-B
Wed 12:11:50 AM 46.6830 -112.0750 109° East 498 573 35,000  Level FlightAware ADS-B
Wed 12:12:42 AM 46.6440 -111.9070 109° East 501 577 35,000  Level FlightAware ADS-B
Wed 12:13:27 AM 46.6100 -111.7630 109° East 502 578 35,000  Level FlightAware ADS-B
Wed 12:13:51 AM 46.5920 -111.6880 109° East 502 578 35,000  Level FlightAware ADS-B
Wed 12:14:59 AM 46.5400 -111.4700 109° East 503 579 35,000  Level FlightAware ADS-B
Wed 12:15:53 AM 46.4990 -111.2980 109° East 504 580 35,000  Level FlightAware ADS-B
Wed 12:16:49 AM 46.4550 -111.1190 110° East 504 580 35,000  Level FlightAware ADS-B
Wed 12:17:50 AM 46.4080 -110.9240 109° East 505 581 35,000  Level FlightAware ADS-B
Wed 12:18:18 AM 46.3850 -110.8340 110° East 504 580 35,000  Level FlightAware ADS-B
Wed 12:19:19 AM 46.3380 -110.6430 110° East 504 580 35,000  Level FlightAware ADS-B
Wed 12:19:55 AM 46.3120 -110.5240 108° East 502 578 35,000  Level FlightAware ADS-B
Wed 12:20:32 AM 46.2960 -110.4030 101° East 497 572 35,000  Level FlightAware ADS-B
Wed 12:21:13 AM 46.2820 -110.2670 98° East 496 571 35,000  Level FlightAware ADS-B
Wed 12:21:39 AM 46.2730 -110.1820 99° East 495 570 35,000  Level FlightAware ADS-B
Wed 12:22:36 AM 46.2530 -109.9970 99° East 494 568 35,000  Level FlightAware ADS-B
Wed 12:23:06 AM 46.2430 -109.8990 98° East 494 568 35,000  Level FlightAware ADS-B
Wed 12:24:02 AM 46.2230 -109.7150 99° East 495 570 35,000  Level FlightAware ADS-B
Wed 12:24:54 AM 46.2040 -109.5440 99° East 500 575 35,000  Level FlightAware ADS-B
Wed 12:25:38 AM 46.1880 -109.4000 99° East 501 577 35,000  Level FlightAware ADS-B
Wed 12:26:36 AM 46.1680 -109.2110 99° East 503 579 35,000  Level FlightAware ADS-B
Wed 12:27:07 AM 46.1560 -109.1060 99° East 503 579 35,000  Level FlightAware ADS-B
Wed 12:27:43 AM 46.1420 -108.9840 99° East 503 579 35,000  Level FlightAware ADS-B
Wed 12:28:12 AM 46.1320 -108.8910 99° East 503 579 35,000  Level FlightAware ADS-B
Wed 12:29:14 AM 46.1080 -108.6830 99° East 505 581 35,000  Level FlightAware ADS-B
Wed 12:29:48 AM 46.0960 -108.5750 99° East 504 580 35,000  Level FlightAware ADS-B
Wed 12:30:24 AM 46.0810 -108.4510 100° East 504 580 35,000  Level FlightAware ADS-B
Wed 12:31:00 AM 46.0670 -108.3290 99° East 503 579 35,000  Level FlightAware ADS-B
Wed 12:31:52 AM 46.0470 -108.1590 100° East 502 578 35,000  Level FlightAware ADS-B
Wed 12:32:51 AM 46.0230 -107.9660 100° East 500 575 35,000  Level FlightAware ADS-B
Wed 12:33:19 AM 46.0120 -107.8730 100° East 501 577 35,000  Level FlightAware ADS-B
Wed 12:33:51 AM 45.9990 -107.7690 100° East 500 575 35,000  Level FlightAware ADS-B
Wed 12:34:48 AM 45.9750 -107.5820 100° East 504 580 35,000  Level FlightAware ADS-B
Wed 12:35:33 AM 45.9560 -107.4330 100° East 504 580 35,000  Level FlightAware ADS-B
Wed 12:36:08 AM 45.9410 -107.3180 101° East 506 582 35,000  Level FlightAware ADS-B
Wed 12:36:40 AM 45.9270 -107.2110 101° East 506 582 35,000  Level FlightAware ADS-B
Wed 12:37:18 AM 45.9120 -107.0960 101° East 505 581 35,000  Level FlightAware ADS-B
Wed 12:38:18 AM 45.8860 -106.9090 101° East 504 580 35,000  Level FlightAware ADS-B
Wed 12:38:54 AM 45.8730 -106.8090 101° East 504 580 35,000  Level FlightAware ADS-B
Wed 12:39:42 AM 45.8550 -106.6740 101° East 504 580 35,000  Level FlightAware ADS-B
Wed 12:40:06 AM 45.8450 -106.6070 102° East 504 580 35,000  Level FlightAware ADS-B
Wed 12:40:42 AM 45.8320 -106.5070 101° East 504 580 35,000  Level FlightAware ADS-B
Wed 12:41:43 AM 45.8090 -106.3370 101° East 504 580 35,000  Level FlightAware ADS-B
Wed 12:42:31 AM 45.7910 -106.2030 101° East 504 580 35,000  Level FlightAware ADS-B
Wed 12:43:19 AM 45.7720 -106.0690 101° East 504 580 35,000  Level FlightAware ADS-B
Wed 12:44:18 AM 45.7150 -105.6960 102° East 513 590 35,000  Level FlightAware ADS-B
Wed 12:44:46 AM 45.7010 -105.6010 102° East 512 589 35,000  Level FlightAware ADS-B
Wed 12:45:27 AM 45.6800 -105.4640 102° East 513 590 35,000  Level FlightAware ADS-B
Wed 12:45:45 AM 45.6720 -105.4090 102° East 513 590 35,000  Level FlightAware ADS-B
Wed 12:46:25 AM 45.6550 -105.2960 102° East 513 590 35,000  Level FlightAware ADS-B
Wed 12:47:19 AM 45.6230 -105.0890 102° East 512 589 35,000  Level FlightAware ADS-B
Wed 12:48:17 AM 45.5970 -104.9110 102° East 512 589 35,000  Level FlightAware ADS-B
Wed 12:48:53 AM 45.5810 -104.8100 103° East 512 589 35,000  Level FlightAware ADS-B
Wed 12:49:53 AM 45.5560 -104.6410 102° East 512 589 35,000  Level FlightAware ADS-B
Wed 12:50:17 AM 45.5460 -104.5740 102° East 512 589 35,000  Level FlightAware ADS-B
Wed 12:50:53 AM 45.5310 -104.4730 102° East 512 589 35,000  Level FlightAware ADS-B
Wed 12:51:53 AM 45.5060 -104.3040 102° East 512 589 35,000  Level FlightAware ADS-B
Wed 12:52:54 AM 45.4800 -104.1330 102° East 512 589 35,000  Level FlightAware ADS-B
Wed 12:53:18 AM 45.4700 -104.0650 102° East 512 589 35,000  Level FlightAware ADS-B
Wed 12:54:06 AM 45.4500 -103.9310 102° East 512 589 35,000  Level FlightAware ADS-B
Wed 12:54:54 AM 45.4300 -103.7960 102° East 512 589 35,000  Level FlightAware ADS-B
Wed 12:55:30 AM 45.4150 -103.6950 102° East 512 589 35,000  Level FlightAware ADS-B
Wed 12:55:54 AM 45.4050 -103.6270 102° East 512 589 35,000  Level FlightAware ADS-B
Wed 12:56:31 AM 45.3900 -103.5240 102° East 512 589 35,000  Level FlightAware ADS-B
Wed 12:57:19 AM 45.3690 -103.3890 102° East 512 589 35,000  Level FlightAware ADS-B
Wed 12:57:43 AM 45.3590 -103.3220 102° East 512 589 35,000 1,056 Level FlightAware ADS-B
Wed 12:59:07 AM 45.2367 -102.6997 102° East 545 627 36,900 781 Climbing Salt Lake Center
Wed 01:00:09 AM 45.1992 -102.4928 104° East 545 627 36,900  Level Salt Lake Center
Wed 01:01:10 AM 45.1561 -102.2450 104° East 542 624 36,900  Level Salt Lake Center
Wed 01:02:10 AM 45.1203 -102.0375 104° East 544 626 36,900  Level Salt Lake Center
Wed 01:03:11 AM 45.0833 -101.8333 104° East 541 623 36,900 48 Level Salt Lake Center
Wed 01:04:14 AM 45.0475 -101.6381 104° East 537 618 37,000 49 Climbing Minneapolis Center
Wed 01:05:14 AM 45.0103 -101.4347 104° East 535 616 37,000  Level Minneapolis Center
Wed 01:06:14 AM 44.9714 -101.2317 105° East 537 618 37,000  Level Minneapolis Center
Wed 01:07:14 AM 44.9339 -101.0289 105° East 537 618 37,000  Level Minneapolis Center
Wed 01:08:15 AM 44.8975 -100.8272 104° East 534 615 37,000  Level Minneapolis Center
Wed 01:13:19 AM 44.6880 -99.7810 104° East 539 620 37,000  Level FlightAware ADS-B
Wed 01:13:55 AM 44.6620 -99.6560 106° East 543 625 37,000  Level FlightAware ADS-B
Wed 01:14:30 AM 44.6370 -99.5380 107° East 543 625 37,000  Level FlightAware ADS-B
Wed 01:15:05 AM 44.6120 -99.4210 107° East 543 625 37,000  Level FlightAware ADS-B
Wed 01:15:40 AM 44.5870 -99.3030 107° East 543 625 37,000  Level FlightAware ADS-B
Wed 01:16:09 AM 44.5670 -99.2080 106° East 544 626 37,000  Level FlightAware ADS-B
Wed 01:16:44 AM 44.5410 -99.0890 107° East 545 627 37,000  Level FlightAware ADS-B
Wed 01:17:24 AM 44.5110 -98.9510 107° East 545 627 37,000  Level FlightAware ADS-B
Wed 01:18:05 AM 44.4810 -98.8100 107° East 545 627 37,000  Level FlightAware ADS-B
Wed 01:18:36 AM 44.4580 -98.7070 107° East 546 628 37,000  Level FlightAware ADS-B
Wed 01:19:12 AM 44.4310 -98.5800 107° East 547 629 37,000  Level FlightAware ADS-B
Wed 01:19:45 AM 44.4080 -98.4750 107° East 548 631 37,000  Level FlightAware ADS-B
Wed 01:20:44 AM 44.3630 -98.2730 107° East 552 635 37,000  Level FlightAware ADS-B
Wed 01:21:20 AM 44.3360 -98.1480 107° East 556 640 37,000  Level FlightAware ADS-B
Wed 01:21:55 AM 44.3090 -98.0270 107° East 556 640 37,000  Level FlightAware ADS-B
Wed 01:23:10 AM 44.2530 -97.7700 107° East 558 642 37,000  Level FlightAware ADS-B
Wed 01:23:41 AM 44.2290 -97.6630 107° East 561 646 37,000  Level FlightAware ADS-B
Wed 01:24:21 AM 44.1960 -97.5200 108° East 563 648 37,000  Level FlightAware ADS-B
Wed 01:25:18 AM 44.1552 -97.3378 107° East 565 650 37,000  Level FlightAware ADS-B
Wed 01:26:05 AM 44.1140 -97.1580 108° East 567 652 37,000  Level FlightAware ADS-B
Wed 01:26:36 AM 44.0880 -97.0460 108° East 571 657 37,000  Level FlightAware ADS-B
Wed 01:27:32 AM 44.0453 -96.8616 108° East 574 661 37,000  Level FlightAware ADS-B
Wed 01:28:08 AM 44.0140 -96.7270 108° East 573 659 37,000  Level FlightAware ADS-B
Wed 01:29:09 AM 43.9634 -96.5138 108° East 569 655 37,000  Level FlightAware ADS-B
Wed 01:30:19 AM 43.9513 -96.4624 108° East 568 654 37,000  Level FlightAware ADS-B
Wed 01:30:56 AM 43.8750 -96.1450 108° East 565 650 37,000  Level FlightAware ADS-B
Wed 01:31:59 AM 43.8220 -95.9248 108° East 563 648 37,000  Level FlightAware ADS-B
Wed 01:32:41 AM 43.7867 -95.7804 109° East 559 643 37,000  Level FlightAware ADS-B (LPVM)
Wed 01:33:32 AM 43.7445 -95.6095 109° East 553 636 37,000  Level FlightAware ADS-B
Wed 01:34:12 AM 43.7208 -95.5136 109° East 553 636 37,000  Level FlightAware ADS-B (LPVM)
Wed 01:34:52 AM 43.6770 -95.3390 109° East 550 633 37,000  Level FlightAware ADS-B
Wed 01:36:01 AM 43.6200 -95.1110 109° East 550 633 37,000  Level FlightAware ADS-B
Wed 01:37:14 AM 43.5575 -94.8647 109° East 552 635 37,000  Level FlightAware ADS-B (LPVM)
Wed 01:38:16 AM 43.5048 -94.6588 109° East 553 636 37,000  Level FlightAware ADS-B (LPVM)
Wed 01:39:04 AM 43.4630 -94.4960 109° East 553 636 37,000  Level FlightAware ADS-B
Wed 01:39:55 AM 43.4218 -94.3310 109° East 554 638 37,000  Level FlightAware ADS-B (LPVM)
Wed 01:40:53 AM 43.3790 -94.1340 107° East 554 638 37,000  Level FlightAware ADS-B
Wed 01:41:52 AM 43.3392 -93.9507 107° East 555 639 37,000  Level FlightAware ADS-B (LPVM)
Wed 01:42:40 AM 43.2980 -93.7680 107° East 553 636 37,000  Level FlightAware ADS-B
Wed 01:43:23 AM 43.2665 -93.6257 107° East 549 632 37,000  Level FlightAware ADS-B (LPVM)
Wed 01:44:16 AM 43.2261 -93.4472 107° East 550 633 37,000  Level FlightAware ADS-B (LPVM)
Wed 01:45:17 AM 43.1790 -93.2420 107° East 550 633 37,000  Level FlightAware ADS-B
Wed 01:46:13 AM 43.1351 -93.0551 108° East 550 633 37,000  Level FlightAware ADS-B (LPVM)
Wed 01:47:02 AM 43.0970 -92.8950 108° East 548 631 37,000  Level FlightAware ADS-B
Wed 01:48:06 AM 43.0470 -92.6820 108° East 546 628 37,000  Level FlightAware ADS-B
Wed 01:48:56 AM 43.0072 -92.5175 108° East 546 628 37,000  Level FlightAware ADS-B (LPVM)
Wed 01:49:37 AM 42.9771 -92.3929 108° East 547 629 37,000  Level FlightAware ADS-B (LPVM)
Wed 01:50:18 AM 42.9426 -92.2508 108° East 548 631 37,000  Level FlightAware ADS-B (LPVM)
Wed 01:51:05 AM 42.9050 -92.0960 108° East 547 629 37,000  Level FlightAware ADS-B
Wed 01:51:57 AM 42.8742 -91.9720 109° East 547 629 37,000  Level FlightAware ADS-B (LPVM)
Wed 01:52:32 AM 42.8332 -91.8062 109° East 546 628 37,000  Level FlightAware ADS-B (LPVM)
Wed 01:53:10 AM 42.8026 -91.6833 109° East 546 628 37,000 -640 Level FlightAware ADS-B (LPVM)
Wed 01:53:47 AM 42.7737 -91.5677 109° East 540 621 36,200 -2,211 Descending FlightAware ADS-B (LPVM)
Wed 01:54:45 AM 42.7260 -91.3760 109° East 537 618 33,500 -2,782 Descending FlightAware ADS-B
Wed 01:55:37 AM 42.6865 -91.2204 109° East 527 606 31,100 -3,099 Descending FlightAware ADS-B (LPVM)
Wed 01:56:16 AM 42.6640 -91.1317 109° East 526 605 28,800 -3,730 Descending FlightAware ADS-B (LPVM)
Wed 01:56:51 AM 42.6253 -90.9789 109° East 524 603 26,500 -4,059 Descending FlightAware ADS-B (LPVM)
Wed 01:57:24 AM 42.5990 -90.8760 109° East 506 582 24,200 -3,616 Descending FlightAware ADS-B
Wed 01:58:04 AM 42.5680 -90.7570 109° East 486 559 22,100 -2,804 Descending FlightAware ADS-B
Wed 01:58:56 AM 42.5310 -90.6120 109° East 460 529 19,900 -2,438 Descending FlightAware ADS-B
Wed 01:59:40 AM 42.5000 -90.4950 110° East 437 503 18,200 -2,240 Descending FlightAware ADS-B
Wed 02:00:11 AM 42.4800 -90.4170 109° East 422 486 17,100 -2,200 Descending FlightAware ADS-B
Wed 02:00:40 AM 42.4610 -90.3430 109° East 411 473 16,000 -2,250 Descending FlightAware ADS-B
Wed 02:01:15 AM 42.4380 -90.2570 110° East 418 481 14,700 -2,206 Descending FlightAware ADS-B
Wed 02:01:48 AM 42.4170 -90.1770 110° East 406 467 13,500 -1,325 Descending FlightAware ADS-B
Wed 02:02:32 AM 42.3890 -90.0730 110° East 403 464 13,000 -375 Descending FlightAware ADS-B
Wed 02:03:08 AM 42.3660 -89.9860 110° East 403 464 13,000 -529 Level FlightAware ADS-B
Wed 02:03:40 AM 42.3450 -89.9080 110° East 397 457 12,400 -1,971 Descending FlightAware ADS-B
Wed 02:04:18 AM 42.3210 -89.8210 110° East 390 449 10,700 -1,971 Descending FlightAware ADS-B
Wed 02:04:50 AM 42.3010 -89.7490 111° Southeast 360 414 10,100 -522 Descending FlightAware ADS-B
Wed 02:05:27 AM 42.2820 -89.6770 110° East 306 352 10,100 -646 Level FlightAware ADS-B
Wed 02:05:55 AM 42.2690 -89.6290 110° East 280 322 9,400 -2,200 Descending FlightAware ADS-B
Wed 02:06:27 AM 42.2540 -89.5750 111° Southeast 282 325 7,900 -2,571 Descending FlightAware ADS-B
Wed 02:06:58 AM 42.2410 -89.5250 109° East 277 319 6,700 -2,239 Descending FlightAware ADS-B
Wed 02:07:34 AM 42.2250 -89.4660 110° East 268 308 5,400 -1,644 Descending FlightAware ADS-B
Wed 02:08:11 AM 42.2090 -89.4090 111° Southeast 263 303 4,700 -1,524 Descending FlightAware ADS-B
Wed 02:08:37 AM 42.1980 -89.3680 110° East 256 295 3,800 -1,662 Descending FlightAware ADS-B
Wed 02:09:16 AM 42.1830 -89.3120 110° East 231 266 2,900 -1,075 Descending FlightAware ADS-B
Wed 02:09:44 AM 42.1730 -89.2750 110° East 214 246 2,600 -353 Descending FlightAware ADS-B
Wed 02:10:24 AM 42.1600 -89.2290 111° Southeast 178 205 2,500 -333 Descending FlightAware ADS-B
Wed 02:10:56 AM 42.1620 -89.2020 84° East 124 143 2,200 -700 Descending FlightAware ADS-B
Wed 02:11:24 AM 42.1690 -89.1810 66° East 117 135 1,800 -716 Descending FlightAware ADS-B
Wed 02:12:03 AM 42.1780 -89.1560 64° Northeast 118 136 1,400 -643 Descending FlightAware ADS-B
Wed 02:12:20 AM 42.1820 -89.1430 67° East 124 143 1,200 -273 Descending FlightAware ADS-B
Wed 02:12:47 AM 42.1880 -89.1270 63° Northeast 124 143 1,200  Level FlightAware ADS-B
Wed 02:19:00 AM 42.1954 -89.0972 109° East  Level Estimated

Login

Don't have an account? Register now (free) for customized features, flight alerts, and more!